sensor_id;sensor_type;location;lat;lon;timestamp;temperature;humidity
35111;DHT22;21290;50.158;8.658;2022-08-19T00:01:45;21.20;99.90
35111;DHT22;21290;50.158;8.658;2022-08-19T00:04:21;21.20;99.90
35111;DHT22;21290;50.158;8.658;2022-08-19T00:06:48;21.20;99.90
35111;DHT22;21290;50.158;8.658;2022-08-19T00:09:18;21.20;99.90
35111;DHT22;21290;50.158;8.658;2022-08-19T00:11:45;21.20;99.90
35111;DHT22;21290;50.158;8.658;2022-08-19T00:14:14;21.10;99.90
35111;DHT22;21290;50.158;8.658;2022-08-19T00:16:43;21.20;99.90
35111;DHT22;21290;50.158;8.658;2022-08-19T00:19:10;21.20;99.90
35111;DHT22;21290;50.158;8.658;2022-08-19T00:21:37;21.20;99.90
35111;DHT22;21290;50.158;8.658;2022-08-19T00:24:10;21.20;99.90
35111;DHT22;21290;50.158;8.658;2022-08-19T00:26:38;21.20;99.90
35111;DHT22;21290;50.158;8.658;2022-08-19T00:29:06;21.20;99.90
35111;DHT22;21290;50.158;8.658;2022-08-19T00:31:34;21.20;99.90
35111;DHT22;21290;50.158;8.658;2022-08-19T00:34:00;21.10;99.90
35111;DHT22;21290;50.158;8.658;2022-08-19T00:36:28;21.10;99.90
35111;DHT22;21290;50.158;8.658;2022-08-19T00:38:55;21.10;99.90
35111;DHT22;21290;50.158;8.658;2022-08-19T00:41:24;21.10;99.90
35111;DHT22;21290;50.158;8.658;2022-08-19T00:46:28;21.00;99.90
35111;DHT22;21290;50.158;8.658;2022-08-19T00:48:56;21.00;99.90
35111;DHT22;21290;50.158;8.658;2022-08-19T00:51:26;21.10;99.90
35111;DHT22;21290;50.158;8.658;2022-08-19T00:53:55;21.00;99.90
35111;DHT22;21290;50.158;8.658;2022-08-19T00:56:24;21.00;99.90
35111;DHT22;21290;50.158;8.658;2022-08-19T00:58:55;21.00;99.90
35111;DHT22;21290;50.158;8.658;2022-08-19T01:01:22;21.00;99.90
35111;DHT22;21290;50.158;8.658;2022-08-19T01:03:49;21.00;99.90
35111;DHT22;21290;50.158;8.658;2022-08-19T01:06:25;21.00;99.90
35111;DHT22;21290;50.158;8.658;2022-08-19T01:08:54;21.00;99.90
35111;DHT22;21290;50.158;8.658;2022-08-19T01:11:21;21.00;99.90
35111;DHT22;21290;50.158;8.658;2022-08-19T01:13:48;21.00;99.90
35111;DHT22;21290;50.158;8.658;2022-08-19T01:16:18;21.10;99.90
35111;DHT22;21290;50.158;8.658;2022-08-19T01:18:45;21.10;99.90
35111;DHT22;21290;50.158;8.658;2022-08-19T01:23:51;21.10;99.90
35111;DHT22;21290;50.158;8.658;2022-08-19T01:26:20;21.10;99.90
35111;DHT22;21290;50.158;8.658;2022-08-19T01:28:51;21.10;99.90
35111;DHT22;21290;50.158;8.658;2022-08-19T01:31:22;21.10;99.90
35111;DHT22;21290;50.158;8.658;2022-08-19T01:33:55;21.10;99.90
35111;DHT22;21290;50.158;8.658;2022-08-19T01:36:26;21.10;99.90
35111;DHT22;21290;50.158;8.658;2022-08-19T01:38:54;21.10;99.90
35111;DHT22;21290;50.158;8.658;2022-08-19T01:41:21;21.10;99.90
35111;DHT22;21290;50.158;8.658;2022-08-19T01:43:51;21.10;99.90
35111;DHT22;21290;50.158;8.658;2022-08-19T01:46:38;21.10;99.90
35111;DHT22;21290;50.158;8.658;2022-08-19T01:49:06;21.00;99.90
35111;DHT22;21290;50.158;8.658;2022-08-19T01:51:34;21.00;99.90
35111;DHT22;21290;50.158;8.658;2022-08-19T01:54:09;21.00;99.90
35111;DHT22;21290;50.158;8.658;2022-08-19T01:56:37;21.00;99.90
35111;DHT22;21290;50.158;8.658;2022-08-19T01:59:10;21.00;99.90
35111;DHT22;21290;50.158;8.658;2022-08-19T02:01:37;20.90;99.90
35111;DHT22;21290;50.158;8.658;2022-08-19T02:04:04;20.90;99.90
35111;DHT22;21290;50.158;8.658;2022-08-19T02:06:32;20.90;99.90
35111;DHT22;21290;50.158;8.658;2022-08-19T02:08:59;20.90;99.90
35111;DHT22;21290;50.158;8.658;2022-08-19T02:11:32;20.90;99.90
35111;DHT22;21290;50.158;8.658;2022-08-19T02:14:01;20.90;99.90
35111;DHT22;21290;50.158;8.658;2022-08-19T02:16:28;20.80;99.90
35111;DHT22;21290;50.158;8.658;2022-08-19T02:18:55;20.90;99.90
35111;DHT22;21290;50.158;8.658;2022-08-19T02:21:23;20.90;99.90
35111;DHT22;21290;50.158;8.658;2022-08-19T02:23:50;20.80;99.90
35111;DHT22;21290;50.158;8.658;2022-08-19T02:26:17;20.80;99.90
35111;DHT22;21290;50.158;8.658;2022-08-19T02:28:46;20.70;99.90
35111;DHT22;21290;50.158;8.658;2022-08-19T02:31:18;20.80;99.90
35111;DHT22;21290;50.158;8.658;2022-08-19T02:33:45;20.80;99.90
35111;DHT22;21290;50.158;8.658;2022-08-19T02:36:13;20.80;99.90
35111;DHT22;21290;50.158;8.658;2022-08-19T02:38:41;20.80;99.90
35111;DHT22;21290;50.158;8.658;2022-08-19T02:41:24;20.80;99.90
35111;DHT22;21290;50.158;8.658;2022-08-19T02:43:54;20.80;99.90
35111;DHT22;21290;50.158;8.658;2022-08-19T02:46:40;20.80;99.90
35111;DHT22;21290;50.158;8.658;2022-08-19T02:49:07;20.80;99.90
35111;DHT22;21290;50.158;8.658;2022-08-19T02:51:37;20.90;99.90
35111;DHT22;21290;50.158;8.658;2022-08-19T02:54:06;20.90;99.90
35111;DHT22;21290;50.158;8.658;2022-08-19T02:56:38;20.80;99.90
35111;DHT22;21290;50.158;8.658;2022-08-19T02:59:06;20.80;99.90
35111;DHT22;21290;50.158;8.658;2022-08-19T03:01:39;20.80;99.90
35111;DHT22;21290;50.158;8.658;2022-08-19T03:04:08;20.80;99.90
35111;DHT22;21290;50.158;8.658;2022-08-19T03:06:40;20.70;99.90
35111;DHT22;21290;50.158;8.658;2022-08-19T03:09:07;20.70;99.90
35111;DHT22;21290;50.158;8.658;2022-08-19T03:11:34;20.60;99.90
35111;DHT22;21290;50.158;8.658;2022-08-19T03:14:02;20.50;99.90
35111;DHT22;21290;50.158;8.658;2022-08-19T03:16:31;20.60;99.90
35111;DHT22;21290;50.158;8.658;2022-08-19T03:18:59;20.50;99.90
35111;DHT22;21290;50.158;8.658;2022-08-19T03:21:28;20.50;99.90
35111;DHT22;21290;50.158;8.658;2022-08-19T03:23:56;20.50;99.90
35111;DHT22;21290;50.158;8.658;2022-08-19T03:26:22;20.50;99.90
35111;DHT22;21290;50.158;8.658;2022-08-19T03:28:49;20.50;99.90
35111;DHT22;21290;50.158;8.658;2022-08-19T03:31:24;20.50;99.90
35111;DHT22;21290;50.158;8.658;2022-08-19T03:34:14;20.50;99.90
35111;DHT22;21290;50.158;8.658;2022-08-19T03:36:41;20.40;99.90
35111;DHT22;21290;50.158;8.658;2022-08-19T03:39:09;20.40;99.90
35111;DHT22;21290;50.158;8.658;2022-08-19T03:41:39;20.30;99.90
35111;DHT22;21290;50.158;8.658;2022-08-19T03:44:13;20.30;99.90
35111;DHT22;21290;50.158;8.658;2022-08-19T03:46:44;20.30;99.90
35111;DHT22;21290;50.158;8.658;2022-08-19T03:49:11;20.30;99.90
35111;DHT22;21290;50.158;8.658;2022-08-19T03:51:41;20.40;99.90
35111;DHT22;21290;50.158;8.658;2022-08-19T03:54:10;20.30;99.90
35111;DHT22;21290;50.158;8.658;2022-08-19T03:56:39;20.30;99.90
35111;DHT22;21290;50.158;8.658;2022-08-19T03:59:10;20.30;99.90
35111;DHT22;21290;50.158;8.658;2022-08-19T04:01:37;20.30;99.90
35111;DHT22;21290;50.158;8.658;2022-08-19T04:04:03;20.30;99.90
35111;DHT22;21290;50.158;8.658;2022-08-19T04:06:36;20.30;99.90
35111;DHT22;21290;50.158;8.658;2022-08-19T04:09:08;20.30;99.90
35111;DHT22;21290;50.158;8.658;2022-08-19T04:11:38;20.20;99.90
35111;DHT22;21290;50.158;8.658;2022-08-19T04:14:16;20.20;99.90
35111;DHT22;21290;50.158;8.658;2022-08-19T04:16:44;20.20;99.90
35111;DHT22;21290;50.158;8.658;2022-08-19T04:19:11;20.20;99.90
35111;DHT22;21290;50.158;8.658;2022-08-19T04:21:39;20.10;99.90
35111;DHT22;21290;50.158;8.658;2022-08-19T04:24:06;20.10;99.90
35111;DHT22;21290;50.158;8.658;2022-08-19T04:26:35;20.00;99.90
35111;DHT22;21290;50.158;8.658;2022-08-19T04:29:08;20.00;99.90
35111;DHT22;21290;50.158;8.658;2022-08-19T04:31:39;19.90;99.90
35111;DHT22;21290;50.158;8.658;2022-08-19T04:34:08;19.90;99.90
35111;DHT22;21290;50.158;8.658;2022-08-19T04:36:39;19.90;99.90
35111;DHT22;21290;50.158;8.658;2022-08-19T04:39:14;19.80;99.90
35111;DHT22;21290;50.158;8.658;2022-08-19T04:41:42;19.80;99.90
35111;DHT22;21290;50.158;8.658;2022-08-19T04:44:27;19.80;99.90
35111;DHT22;21290;50.158;8.658;2022-08-19T04:46:59;19.90;99.90
35111;DHT22;21290;50.158;8.658;2022-08-19T04:49:27;19.90;99.90
35111;DHT22;21290;50.158;8.658;2022-08-19T04:51:54;20.00;99.90
35111;DHT22;21290;50.158;8.658;2022-08-19T04:54:23;20.00;99.90
35111;DHT22;21290;50.158;8.658;2022-08-19T04:57:08;20.00;99.90
35111;DHT22;21290;50.158;8.658;2022-08-19T04:59:37;20.10;99.90
35111;DHT22;21290;50.158;8.658;2022-08-19T05:02:06;20.10;99.90
35111;DHT22;21290;50.158;8.658;2022-08-19T05:04:33;20.10;99.90
35111;DHT22;21290;50.158;8.658;2022-08-19T05:07:00;20.20;99.90
35111;DHT22;21290;50.158;8.658;2022-08-19T05:09:28;20.30;99.90
35111;DHT22;21290;50.158;8.658;2022-08-19T05:12:15;20.30;99.90
35111;DHT22;21290;50.158;8.658;2022-08-19T05:14:42;20.40;99.90
35111;DHT22;21290;50.158;8.658;2022-08-19T05:17:10;20.40;99.90
35111;DHT22;21290;50.158;8.658;2022-08-19T05:19:53;20.50;99.90
35111;DHT22;21290;50.158;8.658;2022-08-19T05:22:39;20.60;99.90
35111;DHT22;21290;50.158;8.658;2022-08-19T05:25:11;20.70;99.90
35111;DHT22;21290;50.158;8.658;2022-08-19T05:27:40;20.80;99.90
35111;DHT22;21290;50.158;8.658;2022-08-19T05:30:08;20.90;99.90
35111;DHT22;21290;50.158;8.658;2022-08-19T05:32:35;21.00;99.90
35111;DHT22;21290;50.158;8.658;2022-08-19T05:35:03;21.20;99.90
35111;DHT22;21290;50.158;8.658;2022-08-19T05:37:29;21.30;99.90
35111;DHT22;21290;50.158;8.658;2022-08-19T05:39:56;21.40;99.90
35111;DHT22;21290;50.158;8.658;2022-08-19T05:42:23;21.40;99.90
35111;DHT22;21290;50.158;8.658;2022-08-19T05:44:51;21.50;99.90
35111;DHT22;21290;50.158;8.658;2022-08-19T05:47:18;21.60;99.90
35111;DHT22;21290;50.158;8.658;2022-08-19T05:49:47;21.70;99.90
35111;DHT22;21290;50.158;8.658;2022-08-19T05:52:15;21.70;99.90
35111;DHT22;21290;50.158;8.658;2022-08-19T05:54:44;21.80;99.90
35111;DHT22;21290;50.158;8.658;2022-08-19T05:57:18;21.90;99.90
35111;DHT22;21290;50.158;8.658;2022-08-19T05:59:45;22.10;99.90
35111;DHT22;21290;50.158;8.658;2022-08-19T06:02:18;22.20;99.90
35111;DHT22;21290;50.158;8.658;2022-08-19T06:04:45;22.30;99.90
35111;DHT22;21290;50.158;8.658;2022-08-19T06:07:12;22.40;99.90
35111;DHT22;21290;50.158;8.658;2022-08-19T06:09:39;22.50;99.90
35111;DHT22;21290;50.158;8.658;2022-08-19T06:12:09;22.50;99.90
35111;DHT22;21290;50.158;8.658;2022-08-19T06:14:36;22.60;99.90
35111;DHT22;21290;50.158;8.658;2022-08-19T06:17:07;22.70;99.90
35111;DHT22;21290;50.158;8.658;2022-08-19T06:19:34;22.90;99.90
35111;DHT22;21290;50.158;8.658;2022-08-19T06:22:06;23.00;99.90
35111;DHT22;21290;50.158;8.658;2022-08-19T06:24:33;23.00;99.90
35111;DHT22;21290;50.158;8.658;2022-08-19T06:27:02;23.20;99.90
35111;DHT22;21290;50.158;8.658;2022-08-19T06:29:29;23.20;99.90
35111;DHT22;21290;50.158;8.658;2022-08-19T06:31:58;23.30;99.90
35111;DHT22;21290;50.158;8.658;2022-08-19T06:34:26;23.30;99.90
35111;DHT22;21290;50.158;8.658;2022-08-19T06:36:55;23.40;99.90
35111;DHT22;21290;50.158;8.658;2022-08-19T06:39:24;23.50;99.90
35111;DHT22;21290;50.158;8.658;2022-08-19T06:41:52;23.50;99.90
35111;DHT22;21290;50.158;8.658;2022-08-19T06:44:26;23.60;99.90
35111;DHT22;21290;50.158;8.658;2022-08-19T06:46:56;23.70;99.90
35111;DHT22;21290;50.158;8.658;2022-08-19T06:49:23;23.70;99.90
35111;DHT22;21290;50.158;8.658;2022-08-19T06:51:51;23.90;99.90
35111;DHT22;21290;50.158;8.658;2022-08-19T06:54:18;24.00;99.90
35111;DHT22;21290;50.158;8.658;2022-08-19T06:56:46;24.10;99.90
35111;DHT22;21290;50.158;8.658;2022-08-19T06:59:16;24.30;99.90
35111;DHT22;21290;50.158;8.658;2022-08-19T07:01:47;24.60;99.90
35111;DHT22;21290;50.158;8.658;2022-08-19T07:04:18;24.80;99.90
35111;DHT22;21290;50.158;8.658;2022-08-19T07:06:46;25.10;99.90
35111;DHT22;21290;50.158;8.658;2022-08-19T07:09:21;25.30;99.90
35111;DHT22;21290;50.158;8.658;2022-08-19T07:11:49;25.50;99.90
35111;DHT22;21290;50.158;8.658;2022-08-19T07:14:19;25.70;99.90
35111;DHT22;21290;50.158;8.658;2022-08-19T07:16:48;25.80;99.90
35111;DHT22;21290;50.158;8.658;2022-08-19T07:19:16;26.00;99.90
35111;DHT22;21290;50.158;8.658;2022-08-19T07:21:49;26.20;99.90
35111;DHT22;21290;50.158;8.658;2022-08-19T07:24:20;26.30;99.90
35111;DHT22;21290;50.158;8.658;2022-08-19T07:26:51;26.30;99.90
35111;DHT22;21290;50.158;8.658;2022-08-19T07:29:19;26.50;99.90
35111;DHT22;21290;50.158;8.658;2022-08-19T07:31:51;26.80;99.90
35111;DHT22;21290;50.158;8.658;2022-08-19T07:34:19;27.10;99.90
35111;DHT22;21290;50.158;8.658;2022-08-19T07:36:46;27.20;99.50
35111;DHT22;21290;50.158;8.658;2022-08-19T07:39:23;27.40;99.40
35111;DHT22;21290;50.158;8.658;2022-08-19T07:41:51;27.50;98.90
35111;DHT22;21290;50.158;8.658;2022-08-19T07:44:19;27.60;98.60
35111;DHT22;21290;50.158;8.658;2022-08-19T07:46:49;27.70;98.50
35111;DHT22;21290;50.158;8.658;2022-08-19T07:49:19;28.00;97.90
35111;DHT22;21290;50.158;8.658;2022-08-19T07:52:07;28.10;97.60
35111;DHT22;21290;50.158;8.658;2022-08-19T07:54:36;28.30;97.20
35111;DHT22;21290;50.158;8.658;2022-08-19T07:57:04;28.70;96.30
35111;DHT22;21290;50.158;8.658;2022-08-19T07:59:31;28.80;95.70
35111;DHT22;21290;50.158;8.658;2022-08-19T08:01:58;28.90;95.50
35111;DHT22;21290;50.158;8.658;2022-08-19T08:04:28;29.10;95.70
35111;DHT22;21290;50.158;8.658;2022-08-19T08:07:13;29.60;94.90
35111;DHT22;21290;50.158;8.658;2022-08-19T08:10:00;30.00;94.60
35111;DHT22;21290;50.158;8.658;2022-08-19T08:12:32;30.40;93.70
35111;DHT22;21290;50.158;8.658;2022-08-19T08:15:05;30.50;93.30
35111;DHT22;21290;50.158;8.658;2022-08-19T08:17:34;30.90;93.30
35111;DHT22;21290;50.158;8.658;2022-08-19T08:20:17;30.90;92.50
35111;DHT22;21290;50.158;8.658;2022-08-19T08:22:45;31.20;92.40
35111;DHT22;21290;50.158;8.658;2022-08-19T08:25:31;31.30;91.30
35111;DHT22;21290;50.158;8.658;2022-08-19T08:28:01;31.10;91.10
35111;DHT22;21290;50.158;8.658;2022-08-19T08:30:29;31.40;90.70
35111;DHT22;21290;50.158;8.658;2022-08-19T08:32:58;31.90;90.40
35111;DHT22;21290;50.158;8.658;2022-08-19T08:35:28;32.40;89.10
35111;DHT22;21290;50.158;8.658;2022-08-19T08:37:55;33.00;86.60
35111;DHT22;21290;50.158;8.658;2022-08-19T08:40:25;34.10;84.70
35111;DHT22;21290;50.158;8.658;2022-08-19T08:43:05;36.10;80.20
35111;DHT22;21290;50.158;8.658;2022-08-19T08:45:43;38.20;74.00
35111;DHT22;21290;50.158;8.658;2022-08-19T08:48:41;39.40;68.90
35111;DHT22;21290;50.158;8.658;2022-08-19T08:51:17;39.40;66.30
35111;DHT22;21290;50.158;8.658;2022-08-19T08:53:48;39.40;65.30
35111;DHT22;21290;50.158;8.658;2022-08-19T08:56:21;38.10;65.00
35111;DHT22;21290;50.158;8.658;2022-08-19T09:01:23;35.10;69.10
35111;DHT22;21290;50.158;8.658;2022-08-19T09:03:55;34.00;69.70
35111;DHT22;21290;50.158;8.658;2022-08-19T09:09:14;36.10;69.00
35111;DHT22;21290;50.158;8.658;2022-08-19T09:17:10;38.60;62.50
35111;DHT22;21290;50.158;8.658;2022-08-19T09:22:15;39.60;60.90
35111;DHT22;21290;50.158;8.658;2022-08-19T09:24:51;40.90;60.00
35111;DHT22;21290;50.158;8.658;2022-08-19T09:27:20;39.90;58.50
35111;DHT22;21290;50.158;8.658;2022-08-19T09:30:21;38.70;60.10
35111;DHT22;21290;50.158;8.658;2022-08-19T09:32:49;37.10;60.30
35111;DHT22;21290;50.158;8.658;2022-08-19T09:35:24;36.20;62.40
35111;DHT22;21290;50.158;8.658;2022-08-19T09:37:54;36.00;63.40
35111;DHT22;21290;50.158;8.658;2022-08-19T09:40:29;37.20;63.10
35111;DHT22;21290;50.158;8.658;2022-08-19T09:43:00;39.00;61.40
35111;DHT22;21290;50.158;8.658;2022-08-19T09:45:35;39.90;59.40
35111;DHT22;21290;50.158;8.658;2022-08-19T09:48:02;39.30;59.90
35111;DHT22;21290;50.158;8.658;2022-08-19T09:50:29;38.60;60.00
35111;DHT22;21290;50.158;8.658;2022-08-19T09:53:17;39.60;59.40
35111;DHT22;21290;50.158;8.658;2022-08-19T09:55:44;40.80;57.70
35111;DHT22;21290;50.158;8.658;2022-08-19T09:58:11;41.70;56.50
35111;DHT22;21290;50.158;8.658;2022-08-19T10:00:38;42.80;55.60
35111;DHT22;21290;50.158;8.658;2022-08-19T10:03:05;43.40;54.30
35111;DHT22;21290;50.158;8.658;2022-08-19T10:05:34;44.10;53.10
35111;DHT22;21290;50.158;8.658;2022-08-19T10:08:22;43.30;52.50
35111;DHT22;21290;50.158;8.658;2022-08-19T10:10:52;41.40;53.00
35111;DHT22;21290;50.158;8.658;2022-08-19T10:13:21;39.80;54.60
35111;DHT22;21290;50.158;8.658;2022-08-19T10:15:50;39.50;54.80
35111;DHT22;21290;50.158;8.658;2022-08-19T10:18:19;40.40;54.90
35111;DHT22;21290;50.158;8.658;2022-08-19T10:20:48;41.10;53.50
35111;DHT22;21290;50.158;8.658;2022-08-19T10:23:19;41.90;53.10
35111;DHT22;21290;50.158;8.658;2022-08-19T10:25:47;43.00;52.40
35111;DHT22;21290;50.158;8.658;2022-08-19T10:28:14;43.40;51.00
35111;DHT22;21290;50.158;8.658;2022-08-19T10:30:40;43.90;50.50
35111;DHT22;21290;50.158;8.658;2022-08-19T10:33:08;44.30;50.50
35111;DHT22;21290;50.158;8.658;2022-08-19T10:35:37;44.10;49.40
35111;DHT22;21290;50.158;8.658;2022-08-19T10:38:22;44.00;49.10
35111;DHT22;21290;50.158;8.658;2022-08-19T10:40:58;42.50;49.80
35111;DHT22;21290;50.158;8.658;2022-08-19T10:43:32;41.80;50.40
35111;DHT22;21290;50.158;8.658;2022-08-19T10:46:04;42.00;50.40
35111;DHT22;21290;50.158;8.658;2022-08-19T10:48:40;42.50;50.20
35111;DHT22;21290;50.158;8.658;2022-08-19T10:51:06;43.50;49.90
35111;DHT22;21290;50.158;8.658;2022-08-19T10:53:53;44.00;49.20
35111;DHT22;21290;50.158;8.658;2022-08-19T10:56:19;44.10;49.10
35111;DHT22;21290;50.158;8.658;2022-08-19T10:59:05;44.80;48.10
35111;DHT22;21290;50.158;8.658;2022-08-19T11:01:33;43.00;48.60
35111;DHT22;21290;50.158;8.658;2022-08-19T11:04:02;40.90;50.40
35111;DHT22;21290;50.158;8.658;2022-08-19T11:06:32;39.20;52.60
35111;DHT22;21290;50.158;8.658;2022-08-19T11:08:59;39.20;51.90
35111;DHT22;21290;50.158;8.658;2022-08-19T11:11:26;40.20;51.50
35111;DHT22;21290;50.158;8.658;2022-08-19T11:13:55;41.60;50.80
35111;DHT22;21290;50.158;8.658;2022-08-19T11:16:23;42.70;48.80
35111;DHT22;21290;50.158;8.658;2022-08-19T11:18:54;43.40;47.90
35111;DHT22;21290;50.158;8.658;2022-08-19T11:21:24;43.50;48.20
35111;DHT22;21290;50.158;8.658;2022-08-19T11:23:55;43.50;47.70
35111;DHT22;21290;50.158;8.658;2022-08-19T11:26:22;42.50;47.50
35111;DHT22;21290;50.158;8.658;2022-08-19T11:28:50;41.10;49.60
35111;DHT22;21290;50.158;8.658;2022-08-19T11:31:22;40.60;50.70
35111;DHT22;21290;50.158;8.658;2022-08-19T11:34:00;39.70;50.10
35111;DHT22;21290;50.158;8.658;2022-08-19T11:36:28;38.90;50.50
35111;DHT22;21290;50.158;8.658;2022-08-19T11:38:55;39.10;51.50
35111;DHT22;21290;50.158;8.658;2022-08-19T11:41:23;40.00;50.20
35111;DHT22;21290;50.158;8.658;2022-08-19T11:43:50;41.20;49.00
35111;DHT22;21290;50.158;8.658;2022-08-19T11:46:21;41.40;48.90
35111;DHT22;21290;50.158;8.658;2022-08-19T11:48:48;40.50;48.60
35111;DHT22;21290;50.158;8.658;2022-08-19T11:51:19;38.90;49.80
35111;DHT22;21290;50.158;8.658;2022-08-19T11:53:46;37.40;51.50
35111;DHT22;21290;50.158;8.658;2022-08-19T11:56:13;36.30;53.60
35111;DHT22;21290;50.158;8.658;2022-08-19T11:58:40;36.30;53.40
35111;DHT22;21290;50.158;8.658;2022-08-19T12:01:15;36.60;51.30
35111;DHT22;21290;50.158;8.658;2022-08-19T12:03:44;36.60;51.60
35111;DHT22;21290;50.158;8.658;2022-08-19T12:06:17;36.20;51.30
35111;DHT22;21290;50.158;8.658;2022-08-19T12:08:44;35.90;52.30
35111;DHT22;21290;50.158;8.658;2022-08-19T12:11:13;35.90;52.70
35111;DHT22;21290;50.158;8.658;2022-08-19T12:13:41;35.80;52.90
35111;DHT22;21290;50.158;8.658;2022-08-19T12:16:13;35.30;52.70
35111;DHT22;21290;50.158;8.658;2022-08-19T12:18:42;34.50;53.50
35111;DHT22;21290;50.158;8.658;2022-08-19T12:21:17;33.90;54.20
35111;DHT22;21290;50.158;8.658;2022-08-19T12:23:44;33.60;55.20
35111;DHT22;21290;50.158;8.658;2022-08-19T12:26:11;33.60;54.40
35111;DHT22;21290;50.158;8.658;2022-08-19T12:28:38;33.70;55.20
35111;DHT22;21290;50.158;8.658;2022-08-19T12:31:05;33.80;54.80
35111;DHT22;21290;50.158;8.658;2022-08-19T12:33:32;33.60;55.10
35111;DHT22;21290;50.158;8.658;2022-08-19T12:36:04;33.50;55.40
35111;DHT22;21290;50.158;8.658;2022-08-19T12:38:32;33.40;55.30
35111;DHT22;21290;50.158;8.658;2022-08-19T12:40:59;33.00;54.90
35111;DHT22;21290;50.158;8.658;2022-08-19T12:43:26;32.80;55.70
35111;DHT22;21290;50.158;8.658;2022-08-19T12:45:53;32.70;56.30
35111;DHT22;21290;50.158;8.658;2022-08-19T12:48:21;32.70;55.80
35111;DHT22;21290;50.158;8.658;2022-08-19T12:51:05;32.70;56.40
35111;DHT22;21290;50.158;8.658;2022-08-19T12:53:32;32.80;56.20
35111;DHT22;21290;50.158;8.658;2022-08-19T12:56:00;32.60;55.70
35111;DHT22;21290;50.158;8.658;2022-08-19T12:58:27;32.30;56.30
35111;DHT22;21290;50.158;8.658;2022-08-19T13:00:55;32.00;57.10
35111;DHT22;21290;50.158;8.658;2022-08-19T13:03:22;31.80;56.90
35111;DHT22;21290;50.158;8.658;2022-08-19T13:05:53;31.50;56.40
35111;DHT22;21290;50.158;8.658;2022-08-19T13:08:20;31.20;57.90
35111;DHT22;21290;50.158;8.658;2022-08-19T13:10:46;31.10;57.30
35111;DHT22;21290;50.158;8.658;2022-08-19T13:13:13;31.10;56.80
35111;DHT22;21290;50.158;8.658;2022-08-19T13:15:41;31.30;56.90
35111;DHT22;21290;50.158;8.658;2022-08-19T13:18:09;31.60;56.30
35111;DHT22;21290;50.158;8.658;2022-08-19T13:20:37;31.70;55.70
35111;DHT22;21290;50.158;8.658;2022-08-19T13:23:04;32.00;56.10
35111;DHT22;21290;50.158;8.658;2022-08-19T13:25:31;32.40;55.80
35111;DHT22;21290;50.158;8.658;2022-08-19T13:27:59;32.80;54.50
35111;DHT22;21290;50.158;8.658;2022-08-19T13:30:26;33.10;55.00
35111;DHT22;21290;50.158;8.658;2022-08-19T13:33:12;33.10;54.20
35111;DHT22;21290;50.158;8.658;2022-08-19T13:35:47;32.90;54.90
35111;DHT22;21290;50.158;8.658;2022-08-19T13:38:17;32.80;55.20
35111;DHT22;21290;50.158;8.658;2022-08-19T13:40:45;32.90;55.60
35111;DHT22;21290;50.158;8.658;2022-08-19T13:43:13;32.70;55.50
35111;DHT22;21290;50.158;8.658;2022-08-19T13:45:50;32.60;55.50
35111;DHT22;21290;50.158;8.658;2022-08-19T13:48:17;32.30;55.60
35111;DHT22;21290;50.158;8.658;2022-08-19T13:50:45;32.00;55.60
35111;DHT22;21290;50.158;8.658;2022-08-19T13:53:14;31.90;56.10
35111;DHT22;21290;50.158;8.658;2022-08-19T13:55:42;31.80;56.50
35111;DHT22;21290;50.158;8.658;2022-08-19T13:58:10;31.70;56.10
35111;DHT22;21290;50.158;8.658;2022-08-19T14:00:40;31.50;56.20
35111;DHT22;21290;50.158;8.658;2022-08-19T14:03:07;31.30;56.50
35111;DHT22;21290;50.158;8.658;2022-08-19T14:05:35;31.10;56.80
35111;DHT22;21290;50.158;8.658;2022-08-19T14:08:03;31.00;56.20
35111;DHT22;21290;50.158;8.658;2022-08-19T14:10:29;31.00;56.70
35111;DHT22;21290;50.158;8.658;2022-08-19T14:13:00;30.90;57.10
35111;DHT22;21290;50.158;8.658;2022-08-19T14:15:27;30.90;57.30
35111;DHT22;21290;50.158;8.658;2022-08-19T14:17:55;31.20;57.20
35111;DHT22;21290;50.158;8.658;2022-08-19T14:20:23;31.30;56.40
35111;DHT22;21290;50.158;8.658;2022-08-19T14:22:52;31.50;56.20
35111;DHT22;21290;50.158;8.658;2022-08-19T14:25:22;31.40;55.90
35111;DHT22;21290;50.158;8.658;2022-08-19T14:27:50;31.40;56.10
35111;DHT22;21290;50.158;8.658;2022-08-19T14:30:21;31.20;56.40
35111;DHT22;21290;50.158;8.658;2022-08-19T14:32:48;31.00;57.20
35111;DHT22;21290;50.158;8.658;2022-08-19T14:35:15;30.90;57.40
35111;DHT22;21290;50.158;8.658;2022-08-19T14:37:43;30.70;57.80
35111;DHT22;21290;50.158;8.658;2022-08-19T14:40:23;30.60;57.80
35111;DHT22;21290;50.158;8.658;2022-08-19T14:42:53;30.50;57.90
35111;DHT22;21290;50.158;8.658;2022-08-19T14:45:26;30.30;57.80
35111;DHT22;21290;50.158;8.658;2022-08-19T14:47:54;30.30;58.30
35111;DHT22;21290;50.158;8.658;2022-08-19T14:50:22;30.40;58.20
35111;DHT22;21290;50.158;8.658;2022-08-19T14:52:48;30.60;57.80
35111;DHT22;21290;50.158;8.658;2022-08-19T14:55:16;30.60;57.90
35111;DHT22;21290;50.158;8.658;2022-08-19T14:57:44;30.60;56.90
35111;DHT22;21290;50.158;8.658;2022-08-19T15:00:12;30.50;56.10
35111;DHT22;21290;50.158;8.658;2022-08-19T15:02:40;30.60;56.30
35111;DHT22;21290;50.158;8.658;2022-08-19T15:05:07;30.60;56.20
35111;DHT22;21290;50.158;8.658;2022-08-19T15:07:34;30.70;56.00
35111;DHT22;21290;50.158;8.658;2022-08-19T15:10:01;30.80;56.20
35111;DHT22;21290;50.158;8.658;2022-08-19T15:12:28;30.70;55.80
35111;DHT22;21290;50.158;8.658;2022-08-19T15:14:54;30.70;56.10
35111;DHT22;21290;50.158;8.658;2022-08-19T15:17:22;30.60;55.50
35111;DHT22;21290;50.158;8.658;2022-08-19T15:20:11;30.60;56.00
35111;DHT22;21290;50.158;8.658;2022-08-19T15:22:39;30.60;56.00
35111;DHT22;21290;50.158;8.658;2022-08-19T15:25:10;30.60;56.50
35111;DHT22;21290;50.158;8.658;2022-08-19T15:27:38;30.50;56.20
35111;DHT22;21290;50.158;8.658;2022-08-19T15:30:08;30.40;56.10
35111;DHT22;21290;50.158;8.658;2022-08-19T15:32:35;30.20;56.10
35111;DHT22;21290;50.158;8.658;2022-08-19T15:35:03;30.20;56.50
35111;DHT22;21290;50.158;8.658;2022-08-19T15:37:31;30.10;56.10
35111;DHT22;21290;50.158;8.658;2022-08-19T15:40:04;30.00;56.30
35111;DHT22;21290;50.158;8.658;2022-08-19T15:42:31;30.00;56.50
35111;DHT22;21290;50.158;8.658;2022-08-19T15:44:58;30.00;56.60
35111;DHT22;21290;50.158;8.658;2022-08-19T15:47:29;30.00;56.60
35111;DHT22;21290;50.158;8.658;2022-08-19T15:50:13;30.00;56.10
35111;DHT22;21290;50.158;8.658;2022-08-19T15:52:58;29.90;56.20
35111;DHT22;21290;50.158;8.658;2022-08-19T15:55:28;30.00;56.70
35111;DHT22;21290;50.158;8.658;2022-08-19T15:58:05;30.10;56.40
35111;DHT22;21290;50.158;8.658;2022-08-19T16:00:58;30.20;56.30
35111;DHT22;21290;50.158;8.658;2022-08-19T16:03:47;30.20;56.30
35111;DHT22;21290;50.158;8.658;2022-08-19T16:06:43;30.30;56.00
35111;DHT22;21290;50.158;8.658;2022-08-19T16:09:10;30.30;55.70